Latest Weather Observations for PORTABLE BTSD (DFES)

IDW60801

Issued at 3:33 am WST Wednesday 7 December 2022 (issued every 10 minutes, with the page automatically refreshed every 10 minutes)

About weather observations | Map of weather stations | Latest weather observations for WA | Other Formats
Station Details ID: 250119 Name: DFES PORTABLE AWS D Lat: -31.21 Lon: 120.26 Height: 10.0 m

Portable automatic weather stations (PAWS) are operated by other organisations, such as Fire and Emergency Services, and are included here by agreement. Portable stations may be deployed to a location for a short period and their location may be subject to change without notice. Wind observations from these stations are provided from heights of either three (3) or ten (10) metres above ground level (AGL).

Data from the previous 72 hours. | See also: Recent months for locations in Western Australia
Date/Time
WST
Temp
°C
App
Temp
°C
Dew
Point
°C
Rel
Hum
%
Delta-T
°C
Wind Press
QNH
hPa
Press
MSL
hPa
Rain since
9am
mm
Dir  Spd
km/h
Gust
km/h
Spd
kts
Gust
kts
07/03:20am 13.1 9.2 7.0 66 2.9 ESE 17 20 9 11 - - 0.0
07/03:10am 12.9 9.3 6.9 67 2.9 ESE 15 19 8 10 - - 0.0
07/03:00am 12.8 9.2 6.9 67 2.8 ESE 15 17 8 9 - - 0.0
07/02:50am 12.7 8.8 6.9 68 2.8 ESE 17 19 9 10 - - 0.0
07/02:40am 12.7 8.8 7.0 68 2.7 ESE 17 20 9 11 - - 0.0
07/02:30am 12.8 8.5 7.0 68 2.8 ESE 19 20 10 11 - - 0.0
07/02:20am 12.8 8.9 7.1 68 2.8 ESE 17 20 9 11 - - 0.0
07/02:10am 12.9 9.0 7.1 68 2.8 ESE 17 20 9 11 - - 0.0
07/02:00am 13.0 9.1 7.1 67 2.9 ESE 17 22 9 12 - - 0.0
07/01:50am 13.0 9.5 7.1 67 2.9 ESE 15 19 8 10 - - 0.0
07/01:40am 13.2 9.3 7.1 66 3.0 ESE 17 20 9 11 - - 0.0
07/01:30am 13.3 9.4 7.1 66 3.0 ESE 17 19 9 10 - - 0.0
07/01:20am 13.4 9.5 7.1 65 3.1 ESE 17 19 9 10 - - 0.0
07/01:10am 13.6 9.3 7.1 65 3.2 ESE 19 22 10 12 - - 0.0
07/01:00am 13.6 10.1 7.0 64 3.2 ESE 15 20 8 11 - - 0.0
07/12:50am 13.8 9.9 7.1 64 3.3 ESE 17 20 9 11 - - 0.0
07/12:40am 13.9 9.6 7.2 64 3.3 ESE 19 22 10 12 - - 0.0
07/12:30am 14.0 9.7 7.2 63 3.3 ESE 19 20 10 11 - - 0.0
07/12:20am 14.2 10.3 7.2 63 3.4 ESE 17 22 9 12 - - 0.0
07/12:10am 14.3 10.4 7.2 62 3.5 ESE 17 19 9 10 - - 0.0
07/12:00am 14.5 10.6 7.2 61 3.6 SE 17 22 9 12 - - 0.0
 
Date/Time
WST
Temp
°C
App
Temp
°C
Dew
Point
°C
Rel
Hum
%
Delta-T
°C
Wind Press
QNH
hPa
Press
MSL
hPa
Rain since
9am
mm
Dir  Spd
km/h
Gust
km/h
Spd
kts
Gust
kts
06/11:50pm 14.7 10.8 7.2 60 3.7 ESE 17 20 9 11 - - 0.0
06/11:40pm 14.8 10.5 7.2 60 3.7 SE 19 22 10 12 - - 0.0
06/11:30pm 15.0 10.7 7.2 59 3.8 SE 19 24 10 13 - - 0.0
06/11:20pm 15.2 10.7 7.1 58 4.0 ESE 20 24 11 13 - - 0.0
06/11:10pm 15.4 10.9 7.0 57 4.1 SE 20 26 11 14 - - 0.0
06/11:00pm 15.6 11.1 7.0 56 4.2 SE 20 24 11 13 - - 0.0
06/10:50pm 15.8 11.5 7.0 56 4.3 SE 19 22 10 12 - - 0.0
06/10:40pm 16.0 11.7 7.0 55 4.4 SE 19 22 10 12 - - 0.0
06/10:30pm 16.2 11.7 7.0 54 4.5 SE 20 28 11 15 - - 0.0
06/10:20pm 16.4 11.5 7.1 54 4.6 SE 22 28 12 15 - - 0.0
06/10:10pm 16.6 11.8 7.2 54 4.7 SE 22 26 12 14 - - 0.0
06/10:00pm 16.8 11.2 7.3 53 4.7 SE 26 33 14 18 - - 0.0
06/09:50pm 17.1 11.9 7.3 52 4.9 SE 24 28 13 15 - - 0.0
06/09:40pm 17.6 13.2 7.5 51 5.1 SE 20 24 11 13 - - 0.0
06/09:30pm 18.0 13.6 7.6 50 5.3 SE 20 26 11 14 - - 0.0
06/09:20pm 18.2 13.9 7.7 50 5.3 SE 20 26 11 14 - - 0.0
06/09:10pm 18.3 14.0 7.8 50 5.3 SE 20 24 11 13 - - 0.0
06/09:00pm 18.5 14.2 7.8 49 5.5 SE 20 24 11 13 - - 0.0
06/08:50pm 18.7 14.4 8.0 49 5.5 SE 20 28 11 15 - - 0.0
06/08:40pm 18.9 14.8 8.0 49 5.6 SE 19 22 10 12 - - 0.0
06/08:30pm 19.2 15.2 8.1 48 5.7 SE 19 22 10 12 - - 0.0
06/08:20pm 19.5 15.3 8.2 48 5.8 SE 20 26 11 14 - - 0.0
06/08:10pm 19.8 15.6 8.3 47 6.0 SE 20 24 11 13 - - 0.0
06/08:00pm 20.0 15.8 8.3 47 6.1 SE 20 26 11 14 - - 0.0
06/07:50pm 20.2 16.2 8.3 46 6.2 SE 19 24 10 13 - - 0.0
06/07:40pm 20.5 16.5 8.3 45 6.4 SE 19 20 10 11 - - 0.0
06/07:30pm 20.9 17.3 8.2 44 6.6 SE 17 22 9 12 - - 0.0
06/07:20pm 21.4 17.5 7.0 39 7.4 SE 17 20 9 11 - - 0.0
06/07:10pm 21.6 17.7 7.0 39 7.5 SE 17 19 9 10 - - 0.0
06/07:00pm 21.8 17.9 7.0 38 7.6 ESE 17 20 9 11 - - 0.0
06/06:50pm 21.9 17.6 7.1 38 7.6 ESE 19 20 10 11 - - 0.0
06/06:40pm 22.2 18.4 7.5 38 7.6 ESE 17 20 9 11 - - 0.0
06/06:30pm 22.7 19.3 7.5 37 7.9 ESE 15 20 8 11 - - 0.0
06/06:20pm 23.0 19.4 6.7 35 8.4 SE 15 20 8 11 - - 0.0
06/06:10pm 23.1 19.0 6.0 33 8.7 ESE 17 20 9 11 - - 0.0
06/06:00pm 23.3 18.6 6.2 33 8.7 ESE 20 24 11 13 - - 0.0
06/05:50pm 23.6 19.7 7.0 34 8.6 SSE 17 20 9 11 - - 0.0
06/05:40pm 23.8 20.0 7.4 35 8.6 SE 17 20 9 11 - - 0.0
06/05:30pm 23.9 19.8 7.7 35 8.5 SE 19 22 10 12 - - 0.0
06/05:20pm 24.2 20.4 7.5 34 8.8 SE 17 19 9 10 - - 0.0
06/05:10pm 24.2 20.4 7.5 34 8.8 SE 17 20 9 11 - - 0.0
06/05:00pm 24.2 19.9 7.1 33 8.9 SE 19 26 10 14 - - 0.0
06/04:50pm 24.2 19.8 7.2 33 8.9 SE 20 24 11 13 - - 0.0
06/04:40pm 24.5 20.3 7.6 34 8.9 SE 19 24 10 13 - - 0.0
06/04:30pm 24.6 20.8 7.5 33 9.0 SE 17 24 9 13 - - 0.0
06/04:20pm 24.8 20.5 7.8 33 9.0 ESE 20 22 11 12 - - 0.0
06/04:10pm 24.5 20.3 7.3 33 9.0 ESE 19 22 10 12 - - 0.0
06/04:00pm 24.8 20.7 7.9 34 9.0 ESE 19 22 10 12 - - 0.0
06/03:50pm 24.7 20.5 7.4 33 9.1 ESE 19 24 10 13 - - 0.0
06/03:40pm 24.9 20.7 8.3 34 8.9 ESE 20 24 11 13 - - 0.0
06/03:30pm 25.0 20.7 8.0 34 9.1 ESE 20 22 11 12 - - 0.0
06/03:20pm 24.9 20.8 7.9 33 9.0 SE 19 22 10 12 - - 0.0
06/03:10pm 24.9 20.9 8.1 34 9.0 SE 19 22 10 12 - - 0.0
06/03:00pm 25.0 21.0 8.2 34 9.0 SE 19 24 10 13 - - 0.0
06/02:50pm 25.0 21.0 8.1 34 9.0 ESE 19 22 10 12 - - 0.0
06/02:40pm 24.9 20.9 8.1 34 9.0 SE 19 26 10 14 - - 0.0
06/02:30pm 24.8 20.6 8.2 34 8.9 SSE 20 26 11 14 - - 0.0
06/02:20pm 25.0 20.9 7.9 33 9.1 SE 19 24 10 13 - - 0.0
06/02:10pm 24.7 20.5 8.3 35 8.8 SE 20 24 11 13 - - 0.0
06/02:00pm 24.8 20.7 7.8 33 9.0 ESE 19 24 10 13 - - 0.0
06/01:50pm 24.7 20.5 8.2 35 8.8 SE 20 26 11 14 - - 0.0
06/01:40pm 24.7 20.7 8.3 35 8.8 SSE 19 24 10 13 - - 0.0
06/01:30pm 24.8 21.0 8.9 36 8.6 SSE 19 24 10 13 - - 0.0
06/01:20pm 25.1 21.1 8.4 34 9.0 SE 19 22 10 12 - - 0.0
06/01:10pm 24.8 21.3 8.9 36 8.6 SE 17 24 9 13 - - 0.0
06/01:00pm 24.6 20.7 8.7 36 8.6 SE 19 24 10 13 - - 0.0
06/12:50pm 24.5 20.7 9.1 37 8.3 SSE 19 22 10 12 - - 0.0
06/12:40pm 24.2 20.5 9.4 39 8.0 SE 19 22 10 12 - - 0.0
06/12:30pm 24.1 20.2 9.5 39 7.9 SE 20 26 11 14 - - 0.0
06/12:20pm 24.3 20.6 9.3 38 8.1 SE 19 22 10 12 - - 0.0
06/12:10pm 24.0 20.6 9.1 38 8.0 SE 17 20 9 11 - - 0.0
06/12:00pm 23.2 19.9 9.6 42 7.4 SE 17 22 9 12 - - 0.0
06/11:50am 23.1 19.4 9.4 41 7.4 ESE 19 24 10 13 - - 0.0
06/11:40am 22.5 18.9 9.9 44 6.8 SE 19 20 10 11 - - 0.0
06/11:30am 22.6 19.5 10.3 45 6.7 SSE 17 20 9 11 - - 0.0
06/11:20am 22.2 19.2 10.7 48 6.3 SE 17 24 9 13 - - 0.0
06/11:10am 22.2 19.2 10.8 48 6.3 SE 17 20 9 11 - - 0.0
06/11:00am 22.1 19.1 10.8 48 6.2 ESE 17 22 9 12 - - 0.0
06/10:50am 21.8 18.8 10.7 49 6.1 SE 17 24 9 13 - - 0.0
06/10:40am 21.6 18.5 10.4 49 6.1 SE 17 22 9 12 - - 0.0
06/10:30am 21.2 17.7 10.3 49 5.9 ESE 19 24 10 13 - - 0.0
06/10:20am 20.9 17.9 10.6 51 5.6 SE 17 20 9 11 - - 0.0
06/10:10am 20.5 17.5 10.8 53 5.3 SE 17 20 9 11 - - 0.0
06/10:00am 20.4 17.0 10.7 53 5.3 SSE 19 22 10 12 - - 0.0
06/09:50am 20.0 17.4 10.8 55 5.0 SE 15 17 8 9 - - 0.0
06/09:40am 19.7 16.5 11.3 58 4.6 SE 19 20 10 11 - - 0.0
06/09:30am 19.7 16.5 11.1 57 4.7 SE 19 20 10 11 - - 0.0
06/09:20am 19.9 16.9 10.7 55 5.0 SE 17 20 9 11 - - 0.0
06/09:10am 19.4 16.1 10.9 58 4.6 SSE 19 22 10 12 - - 0.0
06/09:00am 20.1 17.7 11.3 57 4.8 SE 15 22 8 12 - - 0.0
06/08:50am 20.2 17.3 10.9 55 5.1 SE 17 19 9 10 - - 0.0
06/08:40am 19.2 16.2 10.7 58 4.6 SSE 17 20 9 11 - - 0.0
06/08:30am 19.0 15.8 11.1 60 4.3 SE 19 20 10 11 - - 0.0
06/08:20am 19.0 16.1 11.0 59 4.3 SSE 17 22 9 12 - - 0.0
06/08:10am 19.1 16.2 11.0 59 4.4 SSE 17 20 9 11 - - 0.0
06/08:00am 18.6 15.8 11.2 62 4.0 SE 17 20 9 11 - - 0.0
06/07:50am 18.4 15.1 10.8 61 4.1 SE 19 20 10 11 - - 0.0
06/07:40am 18.0 14.8 11.1 64 3.7 SSE 19 22 10 12 - - 0.0
06/07:30am 17.3 14.4 11.1 67 3.3 SSE 17 20 9 11 - - 0.0
06/07:20am 17.0 13.8 11.1 68 3.2 SSE 19 20 10 11 - - 0.0
06/07:10am 16.6 13.3 11.0 69 3.0 SSE 19 20 10 11 - - 0.0
06/07:00am 16.5 13.2 11.0 70 2.9 SE 19 22 10 12 - - 0.0
06/06:50am 16.3 13.4 11.0 71 2.8 SSE 17 19 9 10 - - 0.0
06/06:40am 16.2 12.9 11.0 71 2.8 SSE 19 22 10 12 - - 0.0
06/06:30am 15.9 12.6 10.9 72 2.7 SSE 19 20 10 11 - - 0.0
06/06:20am 15.8 12.5 10.9 72 2.6 SSE 19 24 10 13 - - 0.0
06/06:10am 15.5 12.6 10.9 74 2.4 SSE 17 20 9 11 - - 0.0
06/06:00am 15.2 12.7 10.9 75 2.3 SSE 15 19 8 10 - - 0.0
06/05:50am 15.1 12.6 10.9 76 2.2 SSE 15 17 8 9 - - 0.0
06/05:40am 14.9 12.7 10.9 77 2.1 SSE 13 17 7 9 - - 0.0
06/05:30am 14.8 12.3 10.9 77 2.1 SSE 15 17 8 9 - - 0.0
06/05:20am 14.7 12.2 10.9 78 2.0 SSE 15 17 8 9 - - 0.0
06/05:10am 14.6 12.1 10.9 78 2.0 SSE 15 17 8 9 - - 0.0
06/05:00am 14.5 12.0 10.9 79 1.9 SSE 15 19 8 10 - - 0.0
06/04:50am 14.4 12.2 10.9 79 1.8 SSE 13 15 7 8 - - 0.0
06/04:40am 14.2 12.4 10.9 80 1.7 SSE 11 13 6 7 - - 0.0
06/04:30am 14.1 12.4 11.1 82 1.6 S 11 11 6 6 - - 0.0
06/04:20am 14.0 12.7 11.1 83 1.5 S 9 11 5 6 - - 0.0
06/04:10am 14.0 13.0 11.1 83 1.5 S 7 9 4 5 - - 0.0
06/04:00am 14.1 13.2 11.2 83 1.5 S 7 7 4 4 - - 0.0
06/03:50am 14.4 13.5 11.3 81 1.7 SSE 7 9 4 5 - - 0.0
06/03:40am 14.6 13.7 11.4 81 1.7 SSE 7 9 4 5 - - 0.0
06/03:30am 14.7 13.4 11.4 80 1.8 SSE 9 11 5 6 - - 0.0
06/03:20am 14.9 13.7 11.5 80 1.8 SSE 9 13 5 7 - - 0.0
06/03:10am 15.0 13.4 11.4 79 1.9 SSE 11 13 6 7 - - 0.0
06/03:00am 15.1 13.5 11.5 79 1.9 SSE 11 13 6 7 - - 0.0
06/02:50am 15.1 13.1 11.5 79 1.9 SSE 13 15 7 8 - - 0.0
06/02:40am 15.2 13.2 11.6 79 1.9 SSE 13 15 7 8 - - 0.0
06/02:30am 15.2 12.9 11.7 79 1.9 SSE 15 17 8 9 - - 0.0
06/02:20am 15.2 12.9 11.8 80 1.8 SSE 15 19 8 10 - - 0.0
06/02:10am 15.2 13.3 11.8 80 1.8 SSE 13 17 7 9 - - 0.0
06/02:00am 15.2 13.4 12.0 81 1.7 SSE 13 15 7 8 - - 0.0
06/01:50am 15.2 13.0 12.0 81 1.7 SSE 15 19 8 10 - - 0.0
06/01:40am 15.3 13.1 12.0 81 1.8 SSE 15 17 8 9 - - 0.0
06/01:30am 15.5 13.3 12.1 80 1.9 SSE 15 19 8 10 - - 0.0
06/01:20am 15.6 13.4 12.1 80 1.9 SSE 15 15 8 8 - - 0.0
06/01:10am 15.8 13.6 12.1 78 2.0 SSE 15 17 8 9 - - 0.0
06/01:00am 16.0 14.2 12.1 77 2.1 SSE 13 17 7 9 - - 0.0
06/12:50am 16.2 14.4 12.1 76 2.2 SE 13 15 7 8 - - 0.0
06/12:40am 16.3 14.5 12.1 76 2.3 SE 13 15 7 8 - - 0.0
06/12:30am 16.4 14.6 12.2 76 2.3 SSE 13 15 7 8 - - 0.0
06/12:20am 16.6 14.8 12.2 75 2.4 SSE 13 17 7 9 - - 0.0
06/12:10am 16.7 14.5 12.2 75 2.5 SSE 15 19 8 10 - - 0.0
06/12:00am 16.7 14.9 12.2 75 2.5 SE 13 15 7 8 - - 0.0
 
Date/Time
WST
Temp
°C
App
Temp
°C
Dew
Point
°C
Rel
Hum
%
Delta-T
°C
Wind Press
QNH
hPa
Press
MSL
hPa
Rain since
9am
mm
Dir  Spd
km/h
Gust
km/h
Spd
kts
Gust
kts
05/11:50pm 16.8 14.6 12.2 74 2.5 SE 15 17 8 9 - - 0.0
05/11:40pm 17.0 15.2 12.1 73 2.7 SE 13 17 7 9 - - 0.0
05/11:30pm 17.1 14.9 12.1 72 2.7 SE 15 20 8 11 - - 0.0
05/11:20pm 17.2 14.6 12.1 72 2.8 SE 17 19 9 10 - - 0.0
05/11:10pm 17.3 14.7 12.1 71 2.9 SE 17 20 9 11 - - 0.0
05/11:00pm 17.3 15.1 12.1 71 2.9 SE 15 19 8 10 - - 0.0
05/10:50pm 17.4 15.2 12.2 71 2.9 SE 15 17 8 9 - - 0.0
05/10:40pm 17.5 15.0 12.2 71 2.9 SE 17 20 9 11 - - 0.0
05/10:30pm 17.6 15.1 12.2 70 3.0 SE 17 20 9 11 - - 0.0
05/10:20pm 17.7 14.8 12.2 70 3.0 SE 19 22 10 12 - - 0.0
05/10:10pm 17.9 15.0 12.2 69 3.1 SE 19 22 10 12 - - 0.0
05/10:00pm 18.1 14.6 12.3 69 3.2 SSE 22 26 12 14 - - 0.0
05/09:50pm 18.5 15.0 12.3 67 3.4 SSE 22 28 12 15 - - 0.0
05/09:40pm 18.8 15.3 12.2 65 3.7 SSE 22 26 12 14 - - 0.0
05/09:30pm 19.3 16.2 12.2 63 4.0 SE 20 24 11 13 - - 0.0
05/09:20pm 19.6 16.4 12.0 61 4.2 SSE 20 24 11 13 - - 0.0
05/09:10pm 19.9 15.9 11.9 60 4.4 SSE 24 30 13 16 - - 0.0
05/09:00pm 20.4 16.8 11.8 57 4.8 SSE 22 26 12 14 - - 0.0
05/08:50pm 20.7 17.0 11.6 56 5.0 SSE 22 26 12 14 - - 0.0
05/08:40pm 21.0 17.7 11.6 55 5.2 SSE 20 24 11 13 - - 0.0
05/08:30pm 21.3 17.6 11.5 53 5.4 SSE 22 24 12 13 - - 0.0
05/08:20pm 21.6 17.9 11.5 52 5.6 SSE 22 30 12 16 - - 0.0
05/08:10pm 21.9 18.2 11.5 51 5.8 SSE 22 26 12 14 - - 0.0
05/08:00pm 22.2 18.9 11.5 50 6.0 SSE 20 28 11 15 - - 0.0
05/07:50pm 22.6 18.5 11.5 49 6.2 SSE 24 28 13 15 - - 0.0
05/07:40pm 23.1 19.3 11.3 47 6.6 SSE 22 26 12 14 - - 0.0
05/07:30pm 23.5 20.1 11.2 46 6.9 SSE 20 24 11 13 - - 0.0
05/07:20pm 24.0 19.8 11.0 44 7.3 SSE 24 30 13 16 - - 0.0
05/07:10pm 24.6 20.3 10.8 42 7.7 SSE 24 26 13 14 - - 0.0
05/07:00pm 25.2 20.8 10.5 39 8.2 SSE 24 28 13 15 - - 0.0
05/06:50pm 25.8 21.4 10.5 38 8.5 SSE 24 26 13 14 - - 0.0
05/06:40pm 26.4 22.4 10.3 36 9.0 SSE 22 26 12 14 - - 0.0
05/06:30pm 27.0 23.5 10.3 35 9.3 SSE 19 24 10 13 - - 0.0
05/06:20pm 27.6 23.5 10.1 33 9.8 S 22 24 12 13 - - 0.0
05/06:10pm 28.1 24.0 10.0 32 10.1 S 22 26 12 14 - - 0.0
05/06:00pm 28.7 24.2 10.0 31 10.5 S 24 28 13 15 - - 0.0
05/05:50pm 29.4 25.6 9.8 29 11.0 S 20 24 11 13 - - 0.0
05/05:40pm 30.2 26.3 9.6 27 11.6 SSE 20 24 11 13 - - 0.0
05/05:30pm 31.1 27.8 9.5 26 12.2 S 17 22 9 12 - - 0.0
05/05:20pm 31.3 28.0 8.1 23 12.8 S 15 19 8 10 - - 0.0
05/05:10pm 31.5 28.2 8.1 23 12.9 S 15 19 8 10 - - 0.0
05/05:00pm 31.7 28.4 8.1 23 13.0 S 15 19 8 10 - - 0.0
05/04:50pm 31.9 28.6 8.2 23 13.1 SSW 15 19 8 10 - - 0.0
05/04:40pm 31.8 28.9 8.1 23 13.1 S 13 19 7 10 - - 0.0
05/04:30pm 32.1 29.2 8.1 22 13.3 SSW 13 15 7 8 - - 0.0
05/04:20pm 32.0 28.2 7.6 22 13.4 SSW 17 22 9 12 - - 0.0
05/04:10pm 31.6 29.3 7.5 22 13.2 WSW 9 11 5 6 - - 0.0
05/04:00pm 32.1 29.3 7.1 21 13.6 WSW 11 15 6 8 - - 0.0
05/03:50pm 32.6 29.7 6.6 19 14.1 W 11 13 6 7 - - 0.0
05/03:40pm 32.7 29.5 6.8 20 14.1 WSW 13 19 7 10 - - 0.0
05/03:30pm 32.9 30.0 6.5 19 14.3 SW 11 15 6 8 - - 0.0
05/03:20pm 32.4 30.7 7.5 21 13.7 E 6 9 3 5 - - 0.0
05/03:10pm 31.9 29.8 8.3 23 13.1 S 9 13 5 7 - - 0.0
05/03:00pm 32.1 30.4 8.3 23 13.2 WNW 7 13 4 7 - - 0.0
05/02:50pm 32.2 29.8 8.6 23 13.2 SW 11 13 6 7 - - 0.0
05/02:40pm 32.2 29.4 8.7 23 13.1 WSW 13 19 7 10 - - 0.0
05/02:30pm 32.3 30.4 9.0 23 13.1 WSW 9 15 5 8 - - 0.0
05/02:20pm 32.0 30.1 9.0 24 12.9 WSW 9 17 5 9 - - 0.0
05/02:10pm 30.8 29.0 9.4 26 12.0 SSE 9 15 5 8 - - 0.0
05/02:00pm 30.7 28.6 9.7 27 11.9 SSW 11 15 6 8 - - 0.0
05/01:50pm 30.7 28.7 10.0 27 11.7 S 11 13 6 7 - - 0.0
05/01:40pm 30.9 29.3 10.1 27 11.8 S 9 13 5 7 - - 0.0
05/01:30pm 30.8 29.1 9.9 27 11.8 WSW 9 13 5 7 - - 0.0
05/01:20pm 30.6 29.4 9.4 26 11.9 W 6 9 3 5 - - 0.0
05/01:10pm 30.3 29.2 10.5 29 11.3 WNW 7 9 4 5 - - 0.0
05/01:00pm 30.4 29.1 10.0 28 11.6 NW 7 15 4 8 - - 0.0
05/12:50pm 29.7 28.5 9.7 28 11.2 NNW 6 11 3 6 - - 0.0
05/12:40pm 29.4 27.9 10.6 31 10.7 WNW 9 13 5 7 - - 0.0
05/12:30pm 29.4 27.9 10.4 30 10.8 NW 9 11 5 6 - - 0.0
05/12:20pm 29.1 27.5 10.2 30 10.7 NW 9 9 5 5 - - 0.0
05/12:10pm 28.5 26.9 10.1 31 10.3 N 9 11 5 6 - - 0.0
05/12:00pm 28.1 26.9 10.4 33 10.0 N 7 11 4 6 - - 0.0
05/11:50am 27.9 26.4 10.7 34 9.7 WNW 9 15 5 8 - - 0.0
05/11:40am 27.4 26.3 10.8 35 9.4 WSW 7 11 4 6 - - 0.0
05/11:30am 27.5 26.4 10.7 35 9.5 WNW 7 13 4 7 - - 0.0
05/11:20am 27.0 26.3 11.3 37 8.9 SSW 6 7 3 4 - - 0.0
05/11:10am 26.5 25.4 10.7 37 8.9 NE 7 13 4 7 - - 0.0
05/11:00am 26.3 25.3 11.1 38 8.6 NNE 7 11 4 6 - - 0.0
05/10:50am 25.7 24.7 11.1 40 8.2 E 7 13 4 7 - - 0.0
05/10:40am 25.3 24.0 11.2 41 7.9 E 9 13 5 7 - - 0.0
05/10:30am 25.4 24.3 10.8 40 8.2 NE 7 13 4 7 - - 0.0
05/10:20am 24.5 23.6 11.2 43 7.5 ESE 7 11 4 6 - - 0.0
05/10:10am 24.1 22.8 11.3 44 7.2 SE 9 13 5 7 - - 0.0
05/10:00am 24.2 23.3 11.3 44 7.2 SE 7 9 4 5 - - 0.0
05/09:50am 23.6 22.3 11.1 45 7.0 E 9 15 5 8 - - 0.0
05/09:40am 23.4 22.3 10.8 45 7.0 NE 7 11 4 6 - - 0.0
05/09:30am 23.1 21.3 10.7 45 6.9 E 11 15 6 8 - - 0.0
05/09:20am 22.7 21.5 10.4 45 6.7 ESE 7 13 4 7 - - 0.0
05/09:10am 22.3 20.9 11.0 48 6.3 E 9 13 5 7 - - 0.0
05/09:00am 22.0 20.2 10.8 49 6.2 E 11 17 6 9 - - 0.0
05/08:50am 21.6 19.7 10.6 49 6.0 E 11 17 6 9 - - 0.0
05/08:40am 21.2 19.0 10.9 51 5.7 E 13 17 7 9 - - 0.0
05/08:30am 21.0 19.2 11.0 52 5.5 E 11 15 6 8 - - 0.0
05/08:20am 20.5 18.2 10.6 53 5.4 E 13 17 7 9 - - 0.0
05/08:10am 20.3 18.0 10.5 53 5.3 E 13 17 7 9 - - 0.0
05/08:00am 20.1 17.8 10.5 54 5.2 E 13 17 7 9 - - 0.0
05/07:50am 19.7 17.0 10.3 54 5.1 E 15 17 8 9 - - 0.0
05/07:40am 19.5 16.8 10.5 56 4.9 E 15 19 8 10 - - 0.0
05/07:30am 19.1 16.4 10.2 56 4.8 E 15 20 8 11 - - 0.0
05/07:20am 19.0 16.3 10.2 56 4.7 E 15 20 8 11 - - 0.0
05/07:10am 18.7 15.5 9.9 56 4.7 E 17 19 9 10 - - 0.0
05/07:00am 18.5 15.3 10.0 57 4.5 E 17 20 9 11 - - 0.0
05/06:50am 18.0 14.8 9.9 59 4.3 E 17 20 9 11 - - 0.0
05/06:40am 17.8 14.6 9.9 60 4.2 E 17 19 9 10 - - 0.0
05/06:30am 17.6 14.4 9.8 60 4.1 E 17 22 9 12 - - 0.0
05/06:20am 17.5 14.3 9.8 60 4.1 E 17 20 9 11 - - 0.0
05/06:10am 17.4 14.8 9.4 59 4.2 E 13 17 7 9 - - 0.0
05/06:00am 17.0 14.0 9.4 61 4.0 E 15 19 8 10 - - 0.0
05/05:50am 16.8 14.2 9.4 61 3.9 E 13 15 7 8 - - 0.0
05/05:40am 16.6 14.4 9.2 61 3.8 E 11 13 6 7 - - 0.0
05/05:30am 16.2 13.6 9.2 63 3.6 E 13 15 7 8 - - 0.0
05/05:20am 15.9 13.6 9.1 64 3.5 E 11 11 6 6 - - 0.0
05/05:10am 15.8 13.1 9.1 64 3.4 E 13 17 7 9 - - 0.0
05/05:00am 15.6 12.9 9.1 65 3.3 E 13 15 7 8 - - 0.0
05/04:50am 15.6 12.9 9.1 65 3.3 E 13 15 7 8 - - 0.0
05/04:40am 15.7 13.4 9.1 65 3.4 E 11 15 6 8 - - 0.0
05/04:30am 15.8 13.1 9.1 64 3.4 E 13 15 7 8 - - 0.0
05/04:20am 15.9 13.3 9.2 64 3.5 E 13 15 7 8 - - 0.0
05/04:10am 16.0 13.0 9.2 64 3.5 E 15 20 8 11 - - 0.0
05/04:00am 16.0 13.4 9.3 64 3.5 E 13 15 7 8 - - 0.0
05/03:50am 16.2 13.2 9.4 64 3.5 E 15 19 8 10 - - 0.0
05/03:40am 16.4 12.7 9.4 63 3.6 E 19 24 10 13 - - 0.0
05/03:30am 16.5 12.8 9.4 63 3.7 E 19 22 10 12 - - 0.0
05/03:20am 16.7 13.3 9.3 61 3.8 E 17 22 9 12 - - 0.0
05/03:10am 16.8 13.4 9.3 61 3.9 E 17 22 9 12 - - 0.0
05/03:00am 16.9 14.2 9.1 60 4.0 E 13 17 7 9 - - 0.0
05/02:50am 17.2 13.5 9.3 59 4.1 E 19 20 10 11 - - 0.0
05/02:40am 17.3 13.9 9.3 59 4.2 E 17 20 9 11 - - 0.0
05/02:30am 17.4 13.5 9.3 59 4.2 E 20 24 11 13 - - 0.0
05/02:20am 17.5 13.6 9.3 58 4.3 E 20 24 11 13 - - 0.0
05/02:10am 17.7 13.9 9.2 57 4.4 E 19 24 10 13 - - 0.0
05/02:00am 17.8 13.9 9.4 58 4.4 E 20 22 11 12 - - 0.0
05/01:50am 17.8 13.9 9.3 57 4.4 E 20 24 11 13 - - 0.0
05/01:40am 18.0 14.7 9.6 58 4.4 E 17 22 9 12 - - 0.0
05/01:30am 18.1 13.9 9.9 58 4.3 E 22 26 12 14 - - 0.0
05/01:20am 18.2 14.1 10.1 59 4.3 E 22 28 12 15 - - 0.0
05/01:10am 18.5 14.5 10.3 59 4.4 E 22 26 12 14 - - 0.0
05/01:00am 18.6 15.5 10.4 59 4.4 E 17 22 9 12 - - 0.0
05/12:50am 18.8 15.4 10.4 58 4.5 E 19 22 10 12 - - 0.0
05/12:40am 18.9 15.5 10.4 57 4.6 E 19 20 10 11 - - 0.0
05/12:30am 19.0 15.0 10.5 57 4.6 E 22 28 12 15 - - 0.0
05/12:20am 19.1 15.7 10.6 58 4.6 E 19 24 10 13 - - 0.0
05/12:10am 19.4 15.4 10.6 56 4.8 E 22 24 12 13 - - 0.0
05/12:00am 19.6 15.6 10.6 56 4.9 E 22 24 12 13 - - 0.0
 
Date/Time
WST
Temp
°C
App
Temp
°C
Dew
Point
°C
Rel
Hum
%
Delta-T
°C
Wind Press
QNH
hPa
Press
MSL
hPa
Rain since
9am
mm
Dir  Spd
km/h
Gust
km/h
Spd
kts
Gust
kts
04/11:50pm 19.9 16.5 10.7 55 5.0 E 19 22 10 12 - - 0.0
04/11:40pm 20.3 16.4 10.8 54 5.2 E 22 28 12 15 - - 0.0
04/11:30pm 20.7 17.2 10.9 53 5.4 E 20 22 11 12 - - 0.0
04/11:20pm 21.0 17.5 11.0 52 5.5 E 20 24 11 13 - - 0.0
04/11:10pm 21.4 18.0 11.1 52 5.7 E 20 26 11 14 - - 0.0
04/11:00pm 21.8 18.6 11.1 50 5.9 E 19 24 10 13 - - 0.0
04/10:50pm 22.0 18.7 11.0 49 6.1 E 19 22 10 12 - - 0.0
04/10:40pm 21.9 18.5 10.7 49 6.2 E 19 20 10 11 - - 0.0
04/10:30pm 20.7 18.8 10.4 51 5.6 E 11 19 6 10 - - 0.0
04/10:20pm 20.7 19.2 10.5 52 5.5 E 9 11 5 6 - - 0.0
04/10:10pm 20.9 19.0 10.5 51 5.7 ESE 11 13 6 7 - - 0.0
04/10:00pm 21.1 19.2 10.5 50 5.8 ESE 11 13 6 7 - - 0.0
04/09:50pm 21.4 19.9 10.5 49 5.9 SE 9 11 5 6 - - 0.0
04/09:40pm 21.7 19.4 10.5 49 6.1 ESE 13 15 7 8 - - 0.0
04/09:30pm 21.9 19.6 10.5 48 6.2 ESE 13 15 7 8 - - 0.0
04/09:20pm 22.2 19.2 10.5 47 6.4 ESE 17 20 9 11 - - 0.0
04/09:10pm 22.8 19.8 10.6 46 6.7 ESE 17 19 9 10 - - 0.0
04/09:00pm 23.5 20.5 10.5 43 7.2 ESE 17 20 9 11 - - 0.0
04/08:50pm 24.5 21.1 10.4 41 7.8 ESE 19 26 10 14 - - 0.0
04/08:40pm 24.9 22.0 9.7 38 8.3 E 15 19 8 10 - - 0.0
04/08:30pm 25.2 21.6 9.9 38 8.4 E 19 22 10 12 - - 0.0
04/08:20pm 25.6 21.4 9.9 37 8.7 E 22 26 12 14 - - 0.0
04/08:10pm 25.9 22.1 9.7 36 8.9 E 20 26 11 14 - - 0.0
04/08:00pm 26.2 22.0 9.8 35 9.1 E 22 26 12 14 - - 0.0
04/07:50pm 26.6 23.2 9.3 33 9.5 E 17 20 9 11 - - 0.0
04/07:40pm 26.8 22.8 9.1 32 9.7 E 20 24 11 13 - - 0.0
04/07:30pm 27.0 22.6 8.9 32 9.9 E 22 26 12 14 - - 0.0
04/07:20pm 27.3 22.8 8.7 31 10.2 E 22 26 12 14 - - 0.0
04/07:10pm 27.6 23.1 8.5 30 10.4 E 22 24 12 13 - - 0.0
04/07:00pm 28.0 23.5 8.4 29 10.7 E 22 26 12 14 - - 0.0
04/06:50pm 28.3 24.3 8.4 28 10.9 E 19 22 10 12 - - 0.0
04/06:40pm 28.7 24.6 8.5 28 11.1 E 20 22 11 12 - - 0.0
04/06:30pm 29.1 25.0 8.5 27 11.3 E 20 22 11 12 - - 0.0
04/06:20pm 29.5 25.0 8.6 27 11.5 ENE 22 26 12 14 - - 0.0
04/06:10pm 30.1 26.5 8.3 25 12.0 ENE 17 20 9 11 - - 0.0
04/06:00pm 29.8 26.2 8.2 26 11.8 E 17 19 9 10 - - 0.0
04/05:50pm 30.4 26.4 8.2 25 12.2 E 19 22 10 12 - - 0.0
04/05:40pm 30.7 26.7 8.1 24 12.4 E 19 22 10 12 - - 0.0
04/05:30pm 31.1 27.0 7.9 23 12.7 ENE 19 20 10 11 - - 0.0
04/05:20pm 31.2 27.1 7.9 23 12.8 E 19 24 10 13 - - 0.0
04/05:10pm 31.3 27.1 8.1 23 12.8 E 20 24 11 13 - - 0.0
04/05:00pm 31.6 27.4 7.6 22 13.2 ENE 19 22 10 12 - - 0.0
04/04:50pm 31.8 27.7 7.8 22 13.2 ENE 19 22 10 12 - - 0.0
04/04:40pm 32.1 28.3 7.5 21 13.5 ENE 17 20 9 11 - - 0.0
04/04:30pm 32.2 28.2 6.6 20 13.8 ENE 17 19 9 10 - - 0.0
04/04:20pm 32.2 28.0 7.3 21 13.6 ENE 19 22 10 12 - - 0.0
04/04:10pm 32.2 28.5 8.1 22 13.4 E 17 20 9 11 - - 0.0
04/04:00pm 32.2 28.8 7.6 21 13.5 E 15 20 8 11 - - 0.0
04/03:50pm 32.3 28.2 7.8 22 13.5 E 19 20 10 11 - - 0.0
04/03:40pm 32.0 28.2 7.7 22 13.4 E 17 22 9 12 - - 0.0
04/03:30pm 32.0 27.8 7.6 22 13.4 E 19 24 10 13 - - 0.0
04/03:20pm 32.1 27.9 7.4 21 13.5 E 19 22 10 12 - - 0.0
04/03:10pm 31.7 27.4 7.8 22 13.1 E 20 30 11 16 - - 0.0
04/03:00pm 31.9 27.6 8.0 22 13.2 ENE 20 22 11 12 - - 0.0
04/02:50pm 32.2 28.3 7.1 21 13.7 ENE 17 20 9 11 - - 0.0
04/02:40pm 31.8 27.5 7.2 21 13.4 E 19 22 10 12 - - 0.0
04/02:30pm 32.0 27.7 7.1 21 13.6 E 19 22 10 12 - - 0.0
04/02:20pm 32.4 28.7 6.4 19 14.0 ENE 15 19 8 10 - - 0.0
04/02:10pm 32.0 28.4 6.8 20 13.7 ENE 15 17 8 9 - - 0.0
04/02:00pm 31.6 28.1 7.2 21 13.3 E 15 19 8 10 - - 0.0
04/01:50pm 31.8 27.9 7.0 21 13.5 E 17 24 9 13 - - 0.0
04/01:40pm 31.5 28.3 6.9 21 13.3 E 13 17 7 9 - - 0.0
04/01:30pm 30.9 27.3 6.8 22 13.0 E 15 19 8 10 - - 0.0
04/01:20pm 30.8 27.2 6.8 22 12.9 E 15 19 8 10 - - 0.0
04/01:10pm 30.6 27.0 6.8 22 12.8 ENE 15 20 8 11 - - 0.0
04/01:00pm 30.5 26.7 7.4 23 12.5 E 17 22 9 12 - - 0.0
04/12:50pm 30.2 26.3 6.9 23 12.5 E 17 20 9 11 - - 0.0
04/12:40pm 30.1 27.3 6.8 23 12.5 ENE 11 22 6 12 - - 0.0
04/12:30pm 29.5 25.6 6.9 24 12.1 ESE 17 20 9 11 - - 0.0
04/12:20pm 29.3 25.5 7.4 25 11.8 E 17 20 9 11 - - 0.0
04/12:10pm 28.6 24.7 7.2 26 11.5 E 17 24 9 13 - - 0.0
04/12:00pm 28.6 24.5 7.8 27 11.3 E 19 20 10 11 - - 0.0
04/11:50am 28.0 24.7 7.9 28 10.9 E 15 19 8 10 - - 0.0
04/11:40am 27.5 24.2 8.0 29 10.5 E 15 19 8 10 - - 0.0
04/11:30am 26.9 23.7 8.3 31 10.1 E 15 22 8 12 - - 0.0
04/11:20am 26.8 23.4 7.8 30 10.2 E 15 19 8 10 - - 0.0
04/11:10am 26.7 23.0 7.9 30 10.1 E 17 24 9 13 - - 0.0
04/11:00am 26.3 22.2 8.0 31 9.8 E 19 22 10 12 - - 0.0
04/10:50am 25.7 21.6 7.9 32 9.5 E 19 22 10 12 - - 0.0
04/10:40am 25.4 21.8 8.3 33 9.2 E 17 19 9 10 - - 0.0
04/10:30am 24.8 20.8 8.3 35 8.8 E 19 22 10 12 - - 0.0
04/10:20am 24.2 20.5 7.9 35 8.6 E 17 20 9 11 - - 0.0
04/10:10am 23.9 19.8 8.5 37 8.2 E 20 26 11 14 - - 0.0
04/10:00am 23.6 19.4 8.2 37 8.2 E 20 24 11 13 - - 0.0
04/09:50am 22.8 18.6 8.1 39 7.7 ESE 20 22 11 12 - - 0.0
04/09:40am 22.6 18.3 8.0 39 7.7 E 20 22 11 12 - - 0.0
04/09:30am 22.3 17.7 8.1 40 7.5 E 22 24 12 13 - - 0.0
04/09:20am 21.8 17.8 8.2 41 7.1 E 19 22 10 12 - - 0.0
04/09:10am 20.7 16.6 8.5 45 6.4 E 20 26 11 14 - - 0.0
04/09:00am 20.7 16.6 8.6 45 6.4 E 20 22 11 12 - - 0.0
04/08:50am 20.4 16.3 8.5 46 6.2 E 20 24 11 13 - - 0.0
04/08:40am 19.3 14.8 8.6 50 5.6 E 22 24 12 13 - - 0.0
04/08:30am 18.9 14.4 8.4 50 5.4 E 22 22 12 12 - - 0.0
04/08:20am 18.8 14.8 9.2 53 5.0 E 20 24 11 13 - - 0.0
04/08:10am 18.8 14.8 9.2 53 5.0 E 20 22 11 12 - - 0.0
04/08:00am 18.4 14.6 9.0 54 4.9 E 19 20 10 11 - - 0.0
04/07:50am 17.8 13.9 9.3 57 4.4 E 20 24 11 13 - - 0.0
04/07:40am 17.3 13.3 9.2 59 4.2 ESE 20 26 11 14 - - 0.0
04/07:30am 16.8 12.5 9.4 61 3.9 ESE 22 24 12 13 - - 0.0
04/07:20am 16.3 12.0 9.3 63 3.6 - 22 26 12 14 - - 0.0
04/07:10am 16.5 12.7 9.7 64 3.6 E 20 26 11 14 - - 0.0
04/07:00am 16.0 12.3 9.6 66 3.3 E 19 22 10 12 - - 0.0
04/06:50am 15.1 11.4 9.5 69 2.9 E 19 24 10 13 - - 0.0
04/06:40am 15.1 11.3 9.7 70 2.8 ESE 20 22 11 12 - - 0.0
04/06:30am 15.3 11.6 9.6 69 3.0 ESE 19 24 10 13 - - 0.0
04/06:20am 14.9 11.2 9.5 70 2.8 ESE 19 22 10 12 - - 0.0
04/06:10am 14.6 10.9 9.6 72 2.6 ESE 19 22 10 12 - - 0.0
04/06:00am 14.4 10.7 9.6 73 2.5 ESE 19 22 10 12 - - 0.0
04/05:50am 14.2 10.9 9.6 74 2.4 ESE 17 22 9 12 - - 0.0
04/05:40am 14.1 10.2 9.6 74 2.3 ESE 20 22 11 12 - - 0.0
04/05:30am 14.2 10.9 9.6 74 2.4 SE 17 22 9 12 - - 0.0
04/05:20am 14.2 10.5 9.5 73 2.4 SE 19 22 10 12 - - 0.0
04/05:10am 14.1 10.8 9.6 74 2.3 SE 17 22 9 12 - - 0.0
04/05:00am 14.2 10.9 9.6 74 2.4 SE 17 22 9 12 - - 0.0
04/04:50am 14.3 10.6 9.6 73 2.4 ESE 19 24 10 13 - - 0.0
04/04:40am 14.5 11.2 9.6 72 2.5 ESE 17 20 9 11 - - 0.0
04/04:30am 14.6 11.0 9.7 72 2.5 ESE 19 22 10 12 - - 0.0
04/04:20am 14.7 11.1 9.7 72 2.6 SE 19 20 10 11 - - 0.0
04/04:10am 14.9 11.7 9.9 72 2.6 SE 17 20 9 11 - - 0.0
04/04:00am 15.2 12.3 9.6 69 2.9 ESE 15 20 8 11 - - 0.0
04/03:50am 15.3 12.0 9.6 69 3.0 ESE 17 22 9 12 - - 0.0
04/03:40am 15.4 12.1 9.7 69 3.0 SE 17 20 9 11 - - 0.0

Other formats

Comma delimited format used in spreadsheet applications
http://www.bom.gov.au/fwo/IDW60801/IDW60801.99459.axf

JavaScript Object Notation format (JSON) in row-major order
http://www.bom.gov.au/fwo/IDW60801/IDW60801.99459.json

Data quality

Most of these data are generated automatically and are frequently updated. Quality checks on data are not normally performed. It is possible for incorrect values to appear. Refer to information at About Latest Weather Observations and please check the disclaimer before using these data.